createdAt,value
2022-11-27T00:01:26.838Z,5.95
2022-11-27T00:03:55.679Z,5.85
2022-11-27T00:06:26.053Z,5.82
2022-11-27T00:08:53.449Z,6.18
2022-11-27T00:11:22.898Z,5.88
2022-11-27T00:13:51.492Z,5.72
2022-11-27T00:16:20.210Z,6.47
2022-11-27T00:18:47.900Z,8.35
2022-11-27T00:21:18.018Z,5.72
2022-11-27T00:23:45.849Z,4.65
2022-11-27T00:26:13.244Z,4.88
2022-11-27T00:28:40.741Z,5.13
2022-11-27T00:31:27.099Z,4.75
2022-11-27T00:33:56.011Z,5.18
2022-11-27T00:36:26.557Z,4.45
2022-11-27T00:38:54.203Z,4.53
2022-11-27T00:41:24.744Z,4.68
2022-11-27T00:43:53.957Z,5.25
2022-11-27T00:46:28.019Z,4.70
2022-11-27T00:48:57.797Z,5.00
2022-11-27T00:51:26.851Z,4.72
2022-11-27T00:53:55.111Z,5.00
2022-11-27T00:56:25.080Z,4.78
2022-11-27T00:58:57.573Z,4.63
2022-11-27T01:01:37.109Z,4.28
2022-11-27T01:04:06.658Z,4.47
2022-11-27T01:06:34.435Z,4.05
2022-11-27T01:09:05.162Z,4.78
2022-11-27T01:11:34.192Z,4.47
2022-11-27T01:14:04.426Z,4.20
2022-11-27T01:16:33.140Z,4.13
2022-11-27T01:19:02.254Z,4.57
2022-11-27T01:21:32.429Z,4.68
2022-11-27T01:24:01.151Z,4.07
2022-11-27T01:26:28.512Z,4.70
2022-11-27T01:28:57.919Z,3.90
2022-11-27T01:31:28.309Z,4.03
2022-11-27T01:33:58.689Z,4.35
2022-11-27T01:36:26.480Z,3.92
2022-11-27T01:38:54.089Z,3.63
2022-11-27T01:41:30.799Z,3.13
2022-11-27T01:44:04.001Z,3.45
2022-11-27T01:46:48.866Z,3.13
2022-11-27T01:49:24.948Z,2.75
2022-11-27T01:52:02.174Z,3.60
2022-11-27T01:54:55.484Z,3.33
2022-11-27T01:57:27.528Z,3.00
2022-11-27T01:59:57.899Z,2.80
2022-11-27T02:02:25.325Z,3.22
2022-11-27T02:04:54.792Z,3.13
2022-11-27T02:07:22.350Z,3.47
2022-11-27T02:09:49.933Z,3.30
2022-11-27T02:12:27.042Z,3.17
2022-11-27T02:15:09.423Z,2.97
2022-11-27T02:18:04.485Z,3.47
2022-11-27T02:20:45.873Z,3.30
2022-11-27T02:23:49.976Z,3.45
2022-11-27T02:26:36.238Z,3.05
2022-11-27T02:29:07.840Z,2.83
2022-11-27T02:31:51.255Z,3.17
2022-11-27T02:34:46.046Z,3.10
2022-11-27T02:37:55.441Z,3.15
2022-11-27T02:40:40.889Z,2.88
2022-11-27T02:43:39.160Z,3.00
2022-11-27T02:46:09.756Z,3.08
2022-11-27T02:48:48.376Z,3.38
2022-11-27T02:51:22.113Z,3.30
2022-11-27T02:53:56.931Z,2.90
2022-11-27T02:56:27.792Z,2.70
2022-11-27T02:58:59.731Z,3.20
2022-11-27T03:04:00.002Z,2.92
2022-11-27T03:06:42.487Z,2.80
2022-11-27T03:09:16.896Z,2.53
2022-11-27T03:11:45.314Z,2.70
2022-11-27T03:14:14.420Z,2.88
2022-11-27T03:17:15.868Z,2.95
2022-11-27T03:19:48.872Z,2.50
2022-11-27T03:22:17.644Z,2.72
2022-11-27T03:24:45.034Z,2.70
2022-11-27T03:27:19.731Z,2.63
2022-11-27T03:29:58.200Z,2.90
2022-11-27T03:32:27.462Z,2.67
2022-11-27T03:34:55.341Z,2.60
2022-11-27T03:37:24.153Z,2.67
2022-11-27T03:39:51.837Z,2.55
2022-11-27T03:42:41.975Z,2.92
2022-11-27T03:45:15.233Z,2.50
2022-11-27T03:48:17.889Z,2.67
2022-11-27T03:50:51.179Z,2.50
2022-11-27T03:53:35.124Z,2.40
2022-11-27T03:56:33.906Z,2.45
2022-11-27T03:59:10.233Z,2.35
2022-11-27T04:01:37.744Z,2.30
2022-11-27T04:04:06.607Z,2.60
2022-11-27T04:06:34.104Z,2.50
2022-11-27T04:09:01.609Z,2.90
2022-11-27T04:11:29.001Z,3.22
2022-11-27T04:13:56.320Z,2.60
2022-11-27T04:16:23.828Z,2.00
2022-11-27T04:18:51.365Z,2.15
2022-11-27T04:21:18.709Z,2.53
2022-11-27T04:23:48.729Z,2.33
2022-11-27T04:26:19.061Z,2.28
2022-11-27T04:28:46.426Z,2.20
2022-11-27T04:31:13.807Z,2.15
2022-11-27T04:33:42.693Z,2.05
2022-11-27T04:36:10.048Z,1.65
2022-11-27T04:38:37.367Z,2.60
2022-11-27T04:41:05.026Z,2.20
2022-11-27T04:43:32.333Z,2.00
2022-11-27T04:45:59.654Z,1.90
2022-11-27T04:48:27.066Z,1.95
2022-11-27T04:50:55.495Z,1.95
2022-11-27T04:53:22.902Z,2.38
2022-11-27T04:55:52.249Z,1.90
2022-11-27T04:58:19.737Z,1.80
2022-11-27T05:00:47.173Z,1.77
2022-11-27T05:03:14.649Z,1.65
2022-11-27T05:05:42.047Z,1.92
2022-11-27T05:08:09.395Z,1.70
2022-11-27T05:10:36.755Z,2.05
2022-11-27T05:13:06.406Z,1.75
2022-11-27T05:15:33.677Z,1.80
2022-11-27T05:18:01.011Z,2.00
2022-11-27T05:20:28.307Z,1.60
2022-11-27T05:22:55.705Z,1.75
2022-11-27T05:25:23.084Z,2.08
2022-11-27T05:27:50.419Z,1.95
2022-11-27T05:30:17.800Z,1.98
2022-11-27T05:32:45.148Z,1.73
2022-11-27T05:35:12.571Z,2.10
2022-11-27T05:37:39.889Z,1.73
2022-11-27T05:40:09.069Z,2.10
2022-11-27T05:42:36.431Z,1.80
2022-11-27T05:45:04.193Z,1.70
2022-11-27T05:47:31.596Z,1.60
2022-11-27T05:49:58.882Z,1.90
2022-11-27T05:52:26.290Z,1.85
2022-11-27T05:54:55.102Z,1.63
2022-11-27T05:57:22.573Z,2.13
2022-11-27T05:59:49.905Z,1.63
2022-11-27T06:02:21.732Z,1.90
2022-11-27T06:04:52.793Z,2.15
2022-11-27T06:07:20.161Z,1.67
2022-11-27T06:09:47.531Z,1.50
2022-11-27T06:12:14.943Z,1.52
2022-11-27T06:14:42.552Z,1.60
2022-11-27T06:17:10.155Z,1.58
2022-11-27T06:19:37.512Z,2.03
2022-11-27T06:22:04.921Z,1.67
2022-11-27T06:24:33.688Z,1.60
2022-11-27T06:27:03.764Z,1.80
2022-11-27T06:29:33.744Z,1.63
2022-11-27T06:32:01.084Z,1.90
2022-11-27T06:34:28.684Z,2.08
2022-11-27T06:36:56.423Z,1.90
2022-11-27T06:39:23.750Z,1.98
2022-11-27T06:41:51.200Z,2.00
2022-11-27T06:44:18.574Z,2.00
2022-11-27T06:46:45.905Z,1.85
2022-11-27T06:49:13.275Z,2.25
2022-11-27T06:51:43.514Z,1.90
2022-11-27T06:54:10.943Z,1.90
2022-11-27T06:56:38.354Z,1.98
2022-11-27T06:59:05.692Z,1.80
2022-11-27T07:01:34.446Z,1.90
2022-11-27T07:04:01.905Z,2.33
2022-11-27T07:06:29.391Z,2.38
2022-11-27T07:08:57.039Z,2.10
2022-11-27T07:11:27.336Z,2.70
2022-11-27T07:13:56.992Z,2.80
2022-11-27T07:16:29.203Z,2.40
2022-11-27T07:19:00.152Z,2.47
2022-11-27T07:21:28.309Z,2.20
2022-11-27T07:23:56.641Z,2.50
2022-11-27T07:26:26.437Z,2.33
2022-11-27T07:28:54.454Z,2.63
2022-11-27T07:31:28.188Z,2.60
2022-11-27T07:33:56.933Z,2.33
2022-11-27T07:36:30.522Z,2.38
2022-11-27T07:38:58.690Z,2.60
2022-11-27T07:41:32.110Z,3.03
2022-11-27T07:43:59.822Z,2.65
2022-11-27T07:46:27.388Z,2.33
2022-11-27T07:48:58.246Z,2.38
2022-11-27T07:51:25.723Z,2.20
2022-11-27T07:53:53.323Z,2.25
2022-11-27T07:56:21.816Z,3.92
2022-11-27T07:58:49.445Z,3.50
2022-11-27T08:01:18.909Z,3.10
2022-11-27T08:03:47.123Z,2.95
2022-11-27T08:06:15.821Z,2.42
2022-11-27T08:08:43.449Z,2.60
2022-11-27T08:11:19.373Z,2.50
2022-11-27T08:13:46.922Z,2.38
2022-11-27T08:16:14.571Z,2.53
2022-11-27T08:18:42.397Z,2.45
2022-11-27T08:21:09.830Z,2.38
2022-11-27T08:23:37.304Z,2.60
2022-11-27T08:26:06.156Z,2.63
2022-11-27T08:28:34.149Z,2.72
2022-11-27T08:31:05.971Z,2.80
2022-11-27T08:33:34.005Z,2.55
2022-11-27T08:36:02.094Z,3.47
2022-11-27T08:38:29.473Z,3.15
2022-11-27T08:40:59.337Z,3.50
2022-11-27T08:43:29.107Z,3.88
2022-11-27T08:45:57.120Z,3.10
2022-11-27T08:48:25.393Z,2.92
2022-11-27T08:50:53.467Z,3.05
2022-11-27T08:53:20.938Z,2.75
2022-11-27T08:55:48.245Z,3.25
2022-11-27T08:58:15.620Z,3.42
2022-11-27T09:00:43.021Z,3.28
2022-11-27T09:03:11.693Z,2.95
2022-11-27T09:05:43.937Z,3.20
2022-11-27T09:08:20.125Z,3.00
2022-11-27T09:10:47.489Z,3.30
2022-11-27T09:13:14.924Z,3.25
2022-11-27T09:15:42.341Z,3.25
2022-11-27T09:18:09.719Z,2.97
2022-11-27T09:20:37.077Z,3.60
2022-11-27T09:23:04.470Z,4.22
2022-11-27T09:25:31.916Z,3.67
2022-11-27T09:27:59.277Z,3.65
2022-11-27T09:30:26.654Z,3.22
2022-11-27T09:32:53.964Z,3.20
2022-11-27T09:35:21.343Z,2.80
2022-11-27T09:37:48.686Z,2.90
2022-11-27T09:40:17.632Z,3.55
2022-11-27T09:42:55.763Z,3.00
2022-11-27T09:45:25.872Z,3.00
2022-11-27T09:47:59.281Z,3.45
2022-11-27T09:50:34.822Z,2.90
2022-11-27T09:53:35.618Z,2.55
2022-11-27T09:56:09.062Z,2.83
2022-11-27T09:58:39.995Z,2.97
2022-11-27T10:01:30.417Z,3.08
2022-11-27T10:04:02.988Z,3.35
2022-11-27T10:06:36.183Z,3.65
2022-11-27T10:09:09.593Z,4.00
2022-11-27T10:11:48.481Z,12.00
2022-11-27T10:14:54.695Z,6.95
2022-11-27T10:17:41.310Z,3.65
2022-11-27T10:20:47.086Z,3.40
2022-11-27T10:23:45.268Z,3.25
2022-11-27T10:26:19.040Z,3.13
2022-11-27T10:28:49.185Z,3.05
2022-11-27T10:31:45.770Z,3.20
2022-11-27T10:34:28.358Z,2.60
2022-11-27T10:36:58.257Z,2.90
2022-11-27T10:39:36.707Z,2.92
2022-11-27T10:42:10.721Z,2.75
2022-11-27T10:45:04.502Z,8.82
2022-11-27T10:47:33.879Z,3.13
2022-11-27T10:50:01.563Z,2.85
2022-11-27T10:52:29.057Z,2.75
2022-11-27T10:55:01.178Z,3.22
2022-11-27T11:00:27.966Z,3.15
2022-11-27T11:03:04.006Z,2.70
2022-11-27T11:05:50.540Z,3.00
2022-11-27T11:08:21.347Z,2.83
2022-11-27T11:10:51.424Z,2.38
2022-11-27T11:13:27.984Z,2.85
2022-11-27T11:15:59.956Z,2.97
2022-11-27T11:18:51.186Z,2.78
2022-11-27T11:21:27.572Z,5.03
2022-11-27T11:24:01.118Z,9.80
2022-11-27T11:26:32.977Z,15.65
2022-11-27T11:29:03.670Z,3.22
2022-11-27T11:31:38.688Z,2.90
2022-11-27T11:34:25.582Z,2.20
2022-11-27T11:37:03.389Z,3.22
2022-11-27T11:39:34.338Z,2.63
2022-11-27T11:42:11.800Z,2.50
2022-11-27T11:44:40.696Z,2.50
2022-11-27T11:47:21.112Z,2.92
2022-11-27T11:49:50.900Z,2.83
2022-11-27T11:52:38.394Z,2.45
2022-11-27T11:55:37.899Z,2.42
2022-11-27T11:58:40.664Z,2.50
2022-11-27T12:01:27.408Z,2.35
2022-11-27T12:04:18.825Z,2.75
2022-11-27T12:07:13.924Z,2.22
2022-11-27T12:09:46.475Z,2.70
2022-11-27T12:12:18.660Z,3.22
2022-11-27T12:14:52.616Z,2.50
2022-11-27T12:17:39.860Z,2.55
2022-11-27T12:20:14.757Z,2.78
2022-11-27T12:23:02.371Z,2.25
2022-11-27T12:25:36.749Z,2.17
2022-11-27T12:28:29.943Z,1.80
2022-11-27T12:31:25.991Z,2.10
2022-11-27T12:34:14.612Z,1.60
2022-11-27T12:37:00.339Z,1.88
2022-11-27T12:40:01.348Z,1.90
2022-11-27T12:42:45.452Z,2.55
2022-11-27T12:45:32.523Z,2.33
2022-11-27T12:48:24.313Z,2.78
2022-11-27T12:50:58.570Z,2.80
2022-11-27T12:53:34.878Z,2.13
2022-11-27T12:56:11.054Z,1.95
2022-11-27T12:58:46.907Z,2.15
2022-11-27T13:01:26.238Z,2.40
2022-11-27T13:04:13.521Z,2.47
2022-11-27T13:07:03.655Z,3.10
2022-11-27T13:09:45.759Z,2.65
2022-11-27T13:12:22.590Z,2.75
2022-11-27T13:15:02.710Z,2.90
2022-11-27T13:17:37.169Z,2.75
2022-11-27T13:20:07.034Z,3.05
2022-11-27T13:22:38.021Z,3.20
2022-11-27T13:25:05.944Z,2.63
2022-11-27T13:27:36.356Z,2.58
2022-11-27T13:30:09.430Z,2.65
2022-11-27T13:32:55.080Z,2.72
2022-11-27T13:35:33.110Z,2.72
2022-11-27T13:38:25.254Z,3.05
2022-11-27T13:40:56.161Z,2.80
2022-11-27T13:43:29.646Z,2.50
2022-11-27T13:46:20.592Z,2.78
2022-11-27T13:49:00.610Z,2.60
2022-11-27T13:51:31.740Z,2.58
2022-11-27T13:54:29.013Z,2.70
2022-11-27T13:56:56.828Z,2.70
2022-11-27T13:59:25.515Z,3.08
2022-11-27T14:02:01.112Z,3.15
2022-11-27T14:04:31.301Z,2.78
2022-11-27T14:07:10.368Z,2.88
2022-11-27T14:09:43.199Z,2.92
2022-11-27T14:12:17.582Z,2.92
2022-11-27T14:14:57.136Z,2.85
2022-11-27T14:17:33.115Z,2.60
2022-11-27T14:20:06.197Z,3.00
2022-11-27T14:23:12.852Z,2.80
2022-11-27T14:25:41.169Z,3.00
2022-11-27T14:28:26.083Z,2.55
2022-11-27T14:30:57.178Z,2.67
2022-11-27T14:33:25.755Z,2.92
2022-11-27T14:36:00.055Z,2.80
2022-11-27T14:38:29.017Z,2.92
2022-11-27T14:41:09.549Z,3.00
2022-11-27T14:43:36.956Z,2.80
2022-11-27T14:46:06.333Z,3.30
2022-11-27T14:48:56.678Z,3.00
2022-11-27T14:51:27.136Z,3.17
2022-11-27T14:54:00.213Z,2.90
2022-11-27T14:56:35.759Z,3.50
2022-11-27T14:59:04.176Z,3.63
2022-11-27T15:01:34.048Z,3.40
2022-11-27T15:04:05.562Z,3.38
2022-11-27T15:06:41.652Z,3.28
2022-11-27T15:09:36.136Z,3.72
2022-11-27T15:12:32.951Z,3.55
2022-11-27T15:15:15.534Z,3.42
2022-11-27T15:17:45.724Z,3.72
2022-11-27T15:20:23.317Z,4.13
2022-11-27T15:22:59.042Z,3.95
2022-11-27T15:25:40.569Z,4.25
2022-11-27T15:28:27.472Z,4.30
2022-11-27T15:30:55.777Z,4.55
2022-11-27T15:33:31.790Z,4.75
2022-11-27T15:36:22.278Z,4.10
2022-11-27T15:38:52.851Z,4.18
2022-11-27T15:41:32.677Z,4.43
2022-11-27T15:44:00.137Z,4.30
2022-11-27T15:46:35.121Z,4.93
2022-11-27T15:49:02.531Z,4.93
2022-11-27T15:51:30.602Z,5.13
2022-11-27T15:53:57.955Z,4.88
2022-11-27T15:56:25.360Z,5.13
2022-11-27T15:58:52.859Z,4.57
2022-11-27T16:01:20.428Z,5.22
2022-11-27T16:03:50.811Z,4.95
2022-11-27T16:06:20.831Z,5.55
2022-11-27T16:08:55.472Z,5.78
2022-11-27T16:11:24.142Z,5.18
2022-11-27T16:13:51.894Z,5.25
2022-11-27T16:16:20.038Z,5.20
2022-11-27T16:18:47.501Z,6.10
2022-11-27T16:21:16.882Z,5.57
2022-11-27T16:23:44.678Z,5.45
2022-11-27T16:26:13.377Z,5.30
2022-11-27T16:28:41.267Z,5.78
2022-11-27T16:31:13.563Z,5.55
2022-11-27T16:33:41.723Z,5.60
2022-11-27T16:36:11.986Z,5.68
2022-11-27T16:38:40.509Z,5.78
2022-11-27T16:41:10.429Z,5.60
2022-11-27T16:43:43.234Z,6.38
2022-11-27T16:46:18.244Z,6.10
2022-11-27T16:48:47.788Z,6.28
2022-11-27T16:51:21.766Z,6.78
2022-11-27T16:53:52.152Z,6.80
2022-11-27T16:56:23.958Z,6.90
2022-11-27T16:58:57.898Z,6.65
2022-11-27T17:01:31.779Z,7.22
2022-11-27T17:03:59.724Z,9.40
2022-11-27T17:06:29.767Z,10.20
2022-11-27T17:08:58.975Z,11.13
2022-11-27T17:11:28.998Z,11.43
2022-11-27T17:13:58.636Z,12.52
2022-11-27T17:16:26.203Z,13.98
2022-11-27T17:18:53.929Z,13.77
2022-11-27T17:21:25.350Z,10.02
2022-11-27T17:23:55.959Z,9.77
2022-11-27T17:26:25.350Z,10.07
2022-11-27T17:28:56.257Z,10.00
2022-11-27T17:31:26.742Z,9.63
2022-11-27T17:33:56.695Z,8.60
2022-11-27T17:36:25.641Z,7.65
2022-11-27T17:38:53.683Z,7.72
2022-11-27T17:41:24.421Z,7.75
2022-11-27T17:43:52.303Z,7.38
2022-11-27T17:46:22.775Z,8.93
2022-11-27T17:48:51.644Z,8.18
2022-11-27T17:51:20.201Z,8.80
2022-11-27T17:53:48.787Z,7.45
2022-11-27T17:56:19.714Z,8.43
2022-11-27T17:58:48.020Z,8.48
2022-11-27T18:01:18.221Z,8.50
2022-11-27T18:03:46.927Z,7.85
2022-11-27T18:06:17.852Z,6.55
2022-11-27T18:08:47.187Z,8.15
2022-11-27T18:11:25.155Z,7.50
2022-11-27T18:13:52.740Z,7.60
2022-11-27T18:16:24.520Z,8.43
2022-11-27T18:18:55.929Z,8.32
2022-11-27T18:21:26.981Z,8.23
2022-11-27T18:24:21.994Z,9.03
2022-11-27T18:29:32.886Z,9.95
2022-11-27T18:32:02.635Z,10.52
2022-11-27T18:34:30.036Z,9.52
2022-11-27T18:36:59.519Z,9.60
2022-11-27T18:39:27.763Z,9.38
2022-11-27T18:41:55.203Z,9.55
2022-11-27T18:44:23.193Z,9.10
2022-11-27T18:46:52.974Z,9.52
2022-11-27T18:49:22.814Z,9.10
2022-11-27T18:51:52.301Z,10.45
2022-11-27T18:54:20.732Z,10.10
2022-11-27T18:56:48.201Z,9.80
2022-11-27T18:59:15.817Z,10.18
2022-11-27T19:01:45.445Z,9.65
2022-11-27T19:04:16.072Z,9.65
2022-11-27T19:06:44.292Z,9.35
2022-11-27T19:09:15.120Z,9.23
2022-11-27T19:14:11.750Z,8.65
2022-11-27T19:16:46.191Z,10.75
2022-11-27T19:22:08.538Z,9.68
2022-11-27T19:24:37.067Z,9.70
2022-11-27T19:27:04.459Z,9.90
2022-11-27T19:29:32.057Z,11.32
2022-11-27T19:32:01.168Z,11.35
2022-11-27T19:34:28.914Z,10.55
2022-11-27T19:36:58.336Z,12.80
2022-11-27T19:39:27.261Z,13.73
2022-11-27T19:41:54.982Z,13.65
2022-11-27T19:44:23.428Z,15.90
2022-11-27T19:46:50.761Z,12.25
2022-11-27T19:49:18.745Z,12.50
2022-11-27T19:51:46.896Z,13.15
2022-11-27T19:54:15.751Z,13.32
2022-11-27T19:56:43.456Z,13.35
2022-11-27T19:59:12.647Z,13.07
2022-11-27T20:01:41.875Z,12.60
2022-11-27T20:04:11.579Z,12.90
2022-11-27T20:06:39.777Z,13.10
2022-11-27T20:09:08.427Z,13.30
2022-11-27T20:11:36.398Z,16.08
2022-11-27T20:14:06.218Z,18.30
2022-11-27T20:16:35.763Z,17.70
2022-11-27T20:19:06.068Z,19.50
2022-11-27T20:21:36.852Z,16.85
2022-11-27T20:24:04.617Z,18.52
2022-11-27T20:26:37.161Z,19.67
2022-11-27T20:29:10.109Z,22.27
2022-11-27T20:31:41.434Z,19.42
2022-11-27T20:36:42.239Z,15.02
2022-11-27T20:39:13.930Z,15.60
2022-11-27T20:41:45.738Z,13.95
2022-11-27T20:44:13.409Z,13.35
2022-11-27T20:46:40.876Z,13.40
2022-11-27T20:49:09.044Z,13.20
2022-11-27T20:51:36.516Z,12.90
2022-11-27T20:54:09.236Z,12.90
2022-11-27T20:56:36.871Z,12.20
2022-11-27T20:59:06.908Z,12.45
2022-11-27T21:01:36.284Z,12.25
2022-11-27T21:04:09.578Z,11.68
2022-11-27T21:06:43.447Z,13.13
2022-11-27T21:09:13.873Z,12.45
2022-11-27T21:11:43.069Z,12.57
2022-11-27T21:14:12.963Z,12.35
2022-11-27T21:16:46.081Z,13.15
2022-11-27T21:19:19.914Z,12.38
2022-11-27T21:21:48.546Z,13.52
2022-11-27T21:24:16.555Z,13.07
2022-11-27T21:26:45.303Z,12.75
2022-11-27T21:29:15.278Z,12.05
2022-11-27T21:31:46.883Z,12.77
2022-11-27T21:34:16.193Z,13.23
2022-11-27T21:36:44.645Z,12.40
2022-11-27T21:39:14.344Z,11.65
2022-11-27T21:41:41.712Z,12.93
2022-11-27T21:44:09.853Z,12.45
2022-11-27T21:46:38.295Z,11.27
2022-11-27T21:49:07.073Z,11.05
2022-11-27T21:51:34.581Z,12.25
2022-11-27T21:54:07.551Z,12.07
2022-11-27T21:56:39.410Z,10.88
2022-11-27T21:59:10.661Z,11.35
2022-11-27T22:01:38.068Z,11.32
2022-11-27T22:04:05.417Z,11.20
2022-11-27T22:06:39.994Z,11.32
2022-11-27T22:09:14.762Z,11.40
2022-11-27T22:11:44.134Z,11.15
2022-11-27T22:14:12.820Z,10.82
2022-11-27T22:16:45.295Z,11.30
2022-11-27T22:19:14.663Z,10.80
2022-11-27T22:21:42.875Z,10.55
2022-11-27T22:24:17.932Z,10.73
2022-11-27T22:26:48.074Z,11.15
2022-11-27T22:29:16.428Z,10.85
2022-11-27T22:31:43.914Z,10.02
2022-11-27T22:34:12.560Z,8.75
2022-11-27T22:36:40.258Z,8.70
2022-11-27T22:39:09.267Z,9.65
2022-11-27T22:41:38.699Z,10.40
2022-11-27T22:44:08.769Z,9.38
2022-11-27T22:46:37.105Z,10.18
2022-11-27T22:49:07.380Z,10.07
2022-11-27T22:51:38.696Z,9.80
2022-11-27T22:54:07.518Z,9.23
2022-11-27T22:56:36.256Z,9.82
2022-11-27T22:59:31.172Z,9.98
2022-11-27T23:01:57.072Z,9.88
2022-11-27T23:04:24.425Z,9.87
2022-11-27T23:06:51.721Z,10.15
2022-11-27T23:09:21.802Z,10.48
2022-11-27T23:11:49.572Z,10.00
2022-11-27T23:14:20.055Z,10.63
2022-11-27T23:16:47.713Z,11.48
2022-11-27T23:19:18.181Z,10.85
2022-11-27T23:21:45.536Z,11.25
2022-11-27T23:24:16.002Z,10.57
2022-11-27T23:26:44.425Z,11.15
2022-11-27T23:29:12.108Z,10.50
2022-11-27T23:31:40.054Z,11.05
2022-11-27T23:34:10.294Z,10.70
2022-11-27T23:36:38.631Z,11.02
2022-11-27T23:39:08.438Z,10.60
2022-11-27T23:41:35.898Z,10.77
2022-11-27T23:44:03.394Z,10.32
2022-11-27T23:46:33.868Z,9.20
2022-11-27T23:49:01.635Z,10.43
2022-11-27T23:51:32.085Z,9.48
2022-11-27T23:54:00.916Z,9.70
2022-11-27T23:56:30.927Z,9.88
2022-11-27T23:58:59.537Z,8.88
